sensor_id;sensor_type;location;lat;lon;timestamp;temperature;humidity
39019;DHT22;24786;51.984;5.872;2022-09-09T00:02:19;15.40;99.90
39019;DHT22;24786;51.984;5.872;2022-09-09T00:05:17;15.40;99.90
39019;DHT22;24786;51.984;5.872;2022-09-09T00:07:50;15.40;99.90
39019;DHT22;24786;51.984;5.872;2022-09-09T00:10:22;15.40;99.90
39019;DHT22;24786;51.984;5.872;2022-09-09T00:18:03;15.40;99.90
39019;DHT22;24786;51.984;5.872;2022-09-09T00:20:48;15.40;99.90
39019;DHT22;24786;51.984;5.872;2022-09-09T00:23:25;15.40;99.90
39019;DHT22;24786;51.984;5.872;2022-09-09T00:31:39;15.40;99.90
39019;DHT22;24786;51.984;5.872;2022-09-09T00:34:21;15.40;99.90
39019;DHT22;24786;51.984;5.872;2022-09-09T00:36:50;15.40;99.90
39019;DHT22;24786;51.984;5.872;2022-09-09T00:39:38;15.40;99.90
39019;DHT22;24786;51.984;5.872;2022-09-09T00:42:14;15.40;99.90
39019;DHT22;24786;51.984;5.872;2022-09-09T00:47:21;15.40;99.90
39019;DHT22;24786;51.984;5.872;2022-09-09T00:52:42;15.40;99.90
39019;DHT22;24786;51.984;5.872;2022-09-09T00:55:27;15.40;99.90
39019;DHT22;24786;51.984;5.872;2022-09-09T00:57:57;15.40;99.90
39019;DHT22;24786;51.984;5.872;2022-09-09T01:00:25;15.30;99.90
39019;DHT22;24786;51.984;5.872;2022-09-09T01:03:14;15.30;99.90
39019;DHT22;24786;51.984;5.872;2022-09-09T01:11:26;15.30;99.90
39019;DHT22;24786;51.984;5.872;2022-09-09T01:14:05;15.20;99.90
39019;DHT22;24786;51.984;5.872;2022-09-09T01:16:35;15.20;99.90
39019;DHT22;24786;51.984;5.872;2022-09-09T01:19:02;15.20;99.90
39019;DHT22;24786;51.984;5.872;2022-09-09T01:21:50;15.20;99.90
39019;DHT22;24786;51.984;5.872;2022-09-09T01:24:33;15.10;99.90
39019;DHT22;24786;51.984;5.872;2022-09-09T01:27:04;15.10;99.90
39019;DHT22;24786;51.984;5.872;2022-09-09T01:29:30;15.10;99.90
39019;DHT22;24786;51.984;5.872;2022-09-09T01:31:57;15.00;99.90
39019;DHT22;24786;51.984;5.872;2022-09-09T01:34:27;15.00;99.90
39019;DHT22;24786;51.984;5.872;2022-09-09T01:37:07;15.00;99.90
39019;DHT22;24786;51.984;5.872;2022-09-09T01:39:35;15.00;99.90
39019;DHT22;24786;51.984;5.872;2022-09-09T01:42:02;14.90;99.90
39019;DHT22;24786;51.984;5.872;2022-09-09T01:44:29;14.90;99.90
39019;DHT22;24786;51.984;5.872;2022-09-09T01:46:56;14.80;99.90
39019;DHT22;24786;51.984;5.872;2022-09-09T01:49:22;14.90;99.90
39019;DHT22;24786;51.984;5.872;2022-09-09T01:51:55;14.80;99.90
39019;DHT22;24786;51.984;5.872;2022-09-09T01:54:24;14.80;99.90
39019;DHT22;24786;51.984;5.872;2022-09-09T01:57:31;14.80;99.90
39019;DHT22;24786;51.984;5.872;2022-09-09T02:00:06;14.80;99.90
39019;DHT22;24786;51.984;5.872;2022-09-09T02:03:00;14.80;99.90
39019;DHT22;24786;51.984;5.872;2022-09-09T02:05:38;14.80;99.90
39019;DHT22;24786;51.984;5.872;2022-09-09T02:08:14;14.80;99.90
39019;DHT22;24786;51.984;5.872;2022-09-09T02:10:46;14.70;99.90
39019;DHT22;24786;51.984;5.872;2022-09-09T02:13:16;14.70;99.90
39019;DHT22;24786;51.984;5.872;2022-09-09T02:18:13;14.60;99.90
39019;DHT22;24786;51.984;5.872;2022-09-09T02:20:43;14.60;99.90
39019;DHT22;24786;51.984;5.872;2022-09-09T02:23:11;14.60;99.90
39019;DHT22;24786;51.984;5.872;2022-09-09T02:25:40;14.50;99.90
39019;DHT22;24786;51.984;5.872;2022-09-09T02:28:08;14.50;99.90
39019;DHT22;24786;51.984;5.872;2022-09-09T02:30:37;14.50;99.90
39019;DHT22;24786;51.984;5.872;2022-09-09T02:33:05;14.50;99.90
39019;DHT22;24786;51.984;5.872;2022-09-09T02:35:32;14.50;99.90
39019;DHT22;24786;51.984;5.872;2022-09-09T02:38:05;14.40;99.90
39019;DHT22;24786;51.984;5.872;2022-09-09T02:40:32;14.50;99.90
39019;DHT22;24786;51.984;5.872;2022-09-09T02:42:57;14.40;99.90
39019;DHT22;24786;51.984;5.872;2022-09-09T02:45:31;14.40;99.90
39019;DHT22;24786;51.984;5.872;2022-09-09T02:51:08;14.40;99.90
39019;DHT22;24786;51.984;5.872;2022-09-09T02:56:25;14.40;99.90
39019;DHT22;24786;51.984;5.872;2022-09-09T02:58:54;14.30;99.90
39019;DHT22;24786;51.984;5.872;2022-09-09T03:01:20;14.30;99.90
39019;DHT22;24786;51.984;5.872;2022-09-09T03:03:45;14.30;99.90
39019;DHT22;24786;51.984;5.872;2022-09-09T03:06:11;14.30;99.90
39019;DHT22;24786;51.984;5.872;2022-09-09T03:08:38;14.20;99.90
39019;DHT22;24786;51.984;5.872;2022-09-09T03:11:03;14.30;99.90
39019;DHT22;24786;51.984;5.872;2022-09-09T03:13:29;14.30;99.90
39019;DHT22;24786;51.984;5.872;2022-09-09T03:15:55;14.20;99.90
39019;DHT22;24786;51.984;5.872;2022-09-09T03:18:21;14.20;99.90
39019;DHT22;24786;51.984;5.872;2022-09-09T03:20:46;14.20;99.90
39019;DHT22;24786;51.984;5.872;2022-09-09T03:23:16;14.20;99.90
39019;DHT22;24786;51.984;5.872;2022-09-09T03:25:51;14.10;99.90
39019;DHT22;24786;51.984;5.872;2022-09-09T03:28:17;14.20;99.90
39019;DHT22;24786;51.984;5.872;2022-09-09T03:30:43;14.20;99.90
39019;DHT22;24786;51.984;5.872;2022-09-09T03:33:09;14.20;99.90
39019;DHT22;24786;51.984;5.872;2022-09-09T03:35:35;14.20;99.90
39019;DHT22;24786;51.984;5.872;2022-09-09T03:38:01;14.20;99.90
39019;DHT22;24786;51.984;5.872;2022-09-09T03:40:27;14.20;99.90
39019;DHT22;24786;51.984;5.872;2022-09-09T03:42:52;14.20;99.90
39019;DHT22;24786;51.984;5.872;2022-09-09T03:45:18;14.20;99.90
39019;DHT22;24786;51.984;5.872;2022-09-09T03:47:43;14.30;99.90
39019;DHT22;24786;51.984;5.872;2022-09-09T03:50:09;14.20;99.90
39019;DHT22;24786;51.984;5.872;2022-09-09T03:52:37;14.30;99.90
39019;DHT22;24786;51.984;5.872;2022-09-09T03:55:04;14.30;99.90
39019;DHT22;24786;51.984;5.872;2022-09-09T03:57:30;14.30;99.90
39019;DHT22;24786;51.984;5.872;2022-09-09T03:59:55;14.30;99.90
39019;DHT22;24786;51.984;5.872;2022-09-09T04:02:21;14.30;99.90
39019;DHT22;24786;51.984;5.872;2022-09-09T04:04:47;14.40;99.90
39019;DHT22;24786;51.984;5.872;2022-09-09T04:07:12;14.40;99.90
39019;DHT22;24786;51.984;5.872;2022-09-09T04:09:39;14.40;99.90
39019;DHT22;24786;51.984;5.872;2022-09-09T04:12:04;14.50;99.90
39019;DHT22;24786;51.984;5.872;2022-09-09T04:14:31;14.50;99.90
39019;DHT22;24786;51.984;5.872;2022-09-09T04:16:57;14.50;99.90
39019;DHT22;24786;51.984;5.872;2022-09-09T04:19:25;14.50;99.90
39019;DHT22;24786;51.984;5.872;2022-09-09T04:21:51;14.60;99.90
39019;DHT22;24786;51.984;5.872;2022-09-09T04:24:17;14.60;99.90
39019;DHT22;24786;51.984;5.872;2022-09-09T04:26:43;14.60;99.90
39019;DHT22;24786;51.984;5.872;2022-09-09T04:29:08;14.60;99.90
39019;DHT22;24786;51.984;5.872;2022-09-09T04:31:34;14.60;99.90
39019;DHT22;24786;51.984;5.872;2022-09-09T04:33:59;14.50;99.90
39019;DHT22;24786;51.984;5.872;2022-09-09T04:36:31;14.60;99.90
39019;DHT22;24786;51.984;5.872;2022-09-09T04:38:57;14.60;99.90
39019;DHT22;24786;51.984;5.872;2022-09-09T04:41:22;14.60;99.90
39019;DHT22;24786;51.984;5.872;2022-09-09T04:43:49;14.70;99.90
39019;DHT22;24786;51.984;5.872;2022-09-09T04:46:15;14.70;99.90
39019;DHT22;24786;51.984;5.872;2022-09-09T04:48:42;14.70;99.90
39019;DHT22;24786;51.984;5.872;2022-09-09T04:51:11;14.70;99.90
39019;DHT22;24786;51.984;5.872;2022-09-09T04:53:36;14.70;99.90
39019;DHT22;24786;51.984;5.872;2022-09-09T04:56:05;14.70;99.90
39019;DHT22;24786;51.984;5.872;2022-09-09T04:58:31;14.70;99.90
39019;DHT22;24786;51.984;5.872;2022-09-09T05:01:11;14.70;99.90
39019;DHT22;24786;51.984;5.872;2022-09-09T05:03:37;14.70;99.90
39019;DHT22;24786;51.984;5.872;2022-09-09T05:06:05;14.80;99.90
39019;DHT22;24786;51.984;5.872;2022-09-09T05:08:31;14.80;99.90
39019;DHT22;24786;51.984;5.872;2022-09-09T05:10:57;14.80;99.90
39019;DHT22;24786;51.984;5.872;2022-09-09T05:13:23;14.80;99.90
39019;DHT22;24786;51.984;5.872;2022-09-09T05:15:53;14.90;99.90
39019;DHT22;24786;51.984;5.872;2022-09-09T05:18:19;14.90;99.90
39019;DHT22;24786;51.984;5.872;2022-09-09T05:20:44;14.90;99.90
39019;DHT22;24786;51.984;5.872;2022-09-09T05:23:10;14.90;99.90
39019;DHT22;24786;51.984;5.872;2022-09-09T05:25:37;14.90;99.90
39019;DHT22;24786;51.984;5.872;2022-09-09T05:28:03;14.90;99.90
39019;DHT22;24786;51.984;5.872;2022-09-09T05:30:28;15.00;99.90
39019;DHT22;24786;51.984;5.872;2022-09-09T05:32:56;15.00;99.90
39019;DHT22;24786;51.984;5.872;2022-09-09T05:35:22;15.00;99.90
39019;DHT22;24786;51.984;5.872;2022-09-09T05:37:48;15.10;99.90
39019;DHT22;24786;51.984;5.872;2022-09-09T05:40:14;15.00;99.90
39019;DHT22;24786;51.984;5.872;2022-09-09T05:42:40;15.10;99.90
39019;DHT22;24786;51.984;5.872;2022-09-09T05:45:07;15.10;99.90
39019;DHT22;24786;51.984;5.872;2022-09-09T05:47:34;15.10;99.90
39019;DHT22;24786;51.984;5.872;2022-09-09T05:50:01;15.10;99.90
39019;DHT22;24786;51.984;5.872;2022-09-09T05:52:26;15.20;99.90
39019;DHT22;24786;51.984;5.872;2022-09-09T05:54:52;15.10;99.90
39019;DHT22;24786;51.984;5.872;2022-09-09T05:57:20;15.20;99.90
39019;DHT22;24786;51.984;5.872;2022-09-09T05:59:46;15.20;99.90
39019;DHT22;24786;51.984;5.872;2022-09-09T06:02:12;15.20;99.90
39019;DHT22;24786;51.984;5.872;2022-09-09T06:04:38;15.20;99.90
39019;DHT22;24786;51.984;5.872;2022-09-09T06:07:04;15.20;99.90
39019;DHT22;24786;51.984;5.872;2022-09-09T06:09:30;15.20;99.90
39019;DHT22;24786;51.984;5.872;2022-09-09T06:11:56;15.30;99.90
39019;DHT22;24786;51.984;5.872;2022-09-09T06:14:23;15.40;99.90
39019;DHT22;24786;51.984;5.872;2022-09-09T06:16:51;15.40;99.90
39019;DHT22;24786;51.984;5.872;2022-09-09T06:19:17;15.50;99.90
39019;DHT22;24786;51.984;5.872;2022-09-09T06:21:42;15.50;99.90
39019;DHT22;24786;51.984;5.872;2022-09-09T06:24:10;15.50;99.90
39019;DHT22;24786;51.984;5.872;2022-09-09T06:26:37;15.50;99.90
39019;DHT22;24786;51.984;5.872;2022-09-09T06:29:06;15.50;99.90
39019;DHT22;24786;51.984;5.872;2022-09-09T06:31:33;15.60;99.90
39019;DHT22;24786;51.984;5.872;2022-09-09T06:33:59;15.70;99.90
39019;DHT22;24786;51.984;5.872;2022-09-09T06:36:31;15.70;99.90
39019;DHT22;24786;51.984;5.872;2022-09-09T06:38:57;15.70;99.90
39019;DHT22;24786;51.984;5.872;2022-09-09T06:41:24;15.70;99.90
39019;DHT22;24786;51.984;5.872;2022-09-09T06:43:51;15.70;99.90
39019;DHT22;24786;51.984;5.872;2022-09-09T06:46:22;15.70;99.90
39019;DHT22;24786;51.984;5.872;2022-09-09T06:48:48;15.80;99.90
39019;DHT22;24786;51.984;5.872;2022-09-09T06:51:18;15.80;99.90
39019;DHT22;24786;51.984;5.872;2022-09-09T06:53:45;15.80;99.90
39019;DHT22;24786;51.984;5.872;2022-09-09T06:56:25;15.80;99.90
39019;DHT22;24786;51.984;5.872;2022-09-09T06:58:53;15.90;99.90
39019;DHT22;24786;51.984;5.872;2022-09-09T07:01:22;15.90;99.90
39019;DHT22;24786;51.984;5.872;2022-09-09T07:03:50;16.00;99.90
39019;DHT22;24786;51.984;5.872;2022-09-09T07:06:22;16.10;99.90
39019;DHT22;24786;51.984;5.872;2022-09-09T07:08:57;16.20;99.90
39019;DHT22;24786;51.984;5.872;2022-09-09T07:11:26;16.20;99.90
39019;DHT22;24786;51.984;5.872;2022-09-09T07:13:53;16.30;99.90
39019;DHT22;24786;51.984;5.872;2022-09-09T07:16:20;16.40;99.90
39019;DHT22;24786;51.984;5.872;2022-09-09T07:18:46;16.50;99.90
39019;DHT22;24786;51.984;5.872;2022-09-09T07:21:13;16.50;99.90
39019;DHT22;24786;51.984;5.872;2022-09-09T07:23:40;16.50;99.90
39019;DHT22;24786;51.984;5.872;2022-09-09T07:26:15;16.50;99.90
39019;DHT22;24786;51.984;5.872;2022-09-09T07:28:41;16.50;99.90
39019;DHT22;24786;51.984;5.872;2022-09-09T07:31:12;16.60;99.90
39019;DHT22;24786;51.984;5.872;2022-09-09T07:33:39;16.60;99.90
39019;DHT22;24786;51.984;5.872;2022-09-09T07:36:09;16.60;99.90
39019;DHT22;24786;51.984;5.872;2022-09-09T07:38:38;16.60;99.90
39019;DHT22;24786;51.984;5.872;2022-09-09T07:41:08;16.70;99.90
39019;DHT22;24786;51.984;5.872;2022-09-09T07:43:40;16.70;99.90
39019;DHT22;24786;51.984;5.872;2022-09-09T07:46:08;16.80;99.90
39019;DHT22;24786;51.984;5.872;2022-09-09T07:48:34;16.90;99.90
39019;DHT22;24786;51.984;5.872;2022-09-09T07:51:05;16.90;99.90
39019;DHT22;24786;51.984;5.872;2022-09-09T07:53:31;17.00;99.90
39019;DHT22;24786;51.984;5.872;2022-09-09T07:56:09;16.90;99.90
39019;DHT22;24786;51.984;5.872;2022-09-09T07:58:40;16.90;99.90
39019;DHT22;24786;51.984;5.872;2022-09-09T08:01:10;16.90;99.90
39019;DHT22;24786;51.984;5.872;2022-09-09T08:03:37;17.00;99.90
39019;DHT22;24786;51.984;5.872;2022-09-09T08:06:05;17.00;99.90
39019;DHT22;24786;51.984;5.872;2022-09-09T08:08:32;17.10;99.90
39019;DHT22;24786;51.984;5.872;2022-09-09T08:11:10;17.10;99.90
39019;DHT22;24786;51.984;5.872;2022-09-09T08:13:37;17.20;99.90
39019;DHT22;24786;51.984;5.872;2022-09-09T08:16:04;17.20;99.90
39019;DHT22;24786;51.984;5.872;2022-09-09T08:18:31;17.10;99.90
39019;DHT22;24786;51.984;5.872;2022-09-09T08:20:56;17.10;99.90
39019;DHT22;24786;51.984;5.872;2022-09-09T08:23:22;17.00;99.90
39019;DHT22;24786;51.984;5.872;2022-09-09T08:25:47;17.00;99.90
39019;DHT22;24786;51.984;5.872;2022-09-09T08:28:14;17.10;99.90
39019;DHT22;24786;51.984;5.872;2022-09-09T08:30:39;17.00;99.90
39019;DHT22;24786;51.984;5.872;2022-09-09T08:33:05;17.00;99.90
39019;DHT22;24786;51.984;5.872;2022-09-09T08:35:30;17.00;99.90
39019;DHT22;24786;51.984;5.872;2022-09-09T08:37:57;17.10;99.90
39019;DHT22;24786;51.984;5.872;2022-09-09T08:40:28;17.00;99.90
39019;DHT22;24786;51.984;5.872;2022-09-09T08:42:56;17.00;99.90
39019;DHT22;24786;51.984;5.872;2022-09-09T08:45:33;17.00;99.90
39019;DHT22;24786;51.984;5.872;2022-09-09T08:50:57;17.00;99.90
39019;DHT22;24786;51.984;5.872;2022-09-09T08:53:29;17.00;99.90
39019;DHT22;24786;51.984;5.872;2022-09-09T08:56:02;17.20;99.90
39019;DHT22;24786;51.984;5.872;2022-09-09T08:58:34;17.10;99.90
39019;DHT22;24786;51.984;5.872;2022-09-09T09:04:32;17.20;99.90
39019;DHT22;24786;51.984;5.872;2022-09-09T09:09:43;17.20;99.90
39019;DHT22;24786;51.984;5.872;2022-09-09T09:12:17;17.30;99.90
39019;DHT22;24786;51.984;5.872;2022-09-09T09:14:45;17.40;99.90
39019;DHT22;24786;51.984;5.872;2022-09-09T09:17:20;17.40;99.90
39019;DHT22;24786;51.984;5.872;2022-09-09T09:19:47;17.50;99.90
39019;DHT22;24786;51.984;5.872;2022-09-09T09:22:30;17.50;99.90
39019;DHT22;24786;51.984;5.872;2022-09-09T09:25:22;17.50;99.90
39019;DHT22;24786;51.984;5.872;2022-09-09T09:27:57;17.40;99.90
39019;DHT22;24786;51.984;5.872;2022-09-09T09:30:29;17.40;99.90
39019;DHT22;24786;51.984;5.872;2022-09-09T09:35:26;17.40;99.90
39019;DHT22;24786;51.984;5.872;2022-09-09T09:37:52;17.30;99.90
39019;DHT22;24786;51.984;5.872;2022-09-09T09:40:20;17.30;99.90
39019;DHT22;24786;51.984;5.872;2022-09-09T09:42:53;17.30;99.90
39019;DHT22;24786;51.984;5.872;2022-09-09T09:45:33;17.30;99.90
39019;DHT22;24786;51.984;5.872;2022-09-09T09:48:04;17.40;99.90
39019;DHT22;24786;51.984;5.872;2022-09-09T09:50:31;17.40;99.90
39019;DHT22;24786;51.984;5.872;2022-09-09T09:53:04;17.50;99.90
39019;DHT22;24786;51.984;5.872;2022-09-09T09:55:33;17.60;99.90
39019;DHT22;24786;51.984;5.872;2022-09-09T09:58:05;17.70;99.90
39019;DHT22;24786;51.984;5.872;2022-09-09T10:00:32;17.90;99.90
39019;DHT22;24786;51.984;5.872;2022-09-09T10:03:00;18.00;99.90
39019;DHT22;24786;51.984;5.872;2022-09-09T10:05:30;18.00;99.90
39019;DHT22;24786;51.984;5.872;2022-09-09T10:08:11;18.00;99.90
39019;DHT22;24786;51.984;5.872;2022-09-09T10:13:20;17.80;99.90
39019;DHT22;24786;51.984;5.872;2022-09-09T10:16:01;17.90;99.90
39019;DHT22;24786;51.984;5.872;2022-09-09T10:21:40;17.80;99.90
39019;DHT22;24786;51.984;5.872;2022-09-09T10:34:58;17.80;99.90
39019;DHT22;24786;51.984;5.872;2022-09-09T10:40:27;17.90;99.90
39019;DHT22;24786;51.984;5.872;2022-09-09T10:48:48;17.90;99.90
39019;DHT22;24786;51.984;5.872;2022-09-09T10:51:29;17.90;99.90
39019;DHT22;24786;51.984;5.872;2022-09-09T10:56:37;18.00;99.90
39019;DHT22;24786;51.984;5.872;2022-09-09T10:59:20;18.00;99.90
39019;DHT22;24786;51.984;5.872;2022-09-09T11:01:53;18.10;99.90
39019;DHT22;24786;51.984;5.872;2022-09-09T11:04:29;18.10;99.90
39019;DHT22;24786;51.984;5.872;2022-09-09T11:07:02;18.20;99.90
39019;DHT22;24786;51.984;5.872;2022-09-09T11:09:35;18.20;99.90
39019;DHT22;24786;51.984;5.872;2022-09-09T11:12:02;18.00;99.90
39019;DHT22;24786;51.984;5.872;2022-09-09T11:14:41;18.00;99.90
39019;DHT22;24786;51.984;5.872;2022-09-09T11:17:21;18.00;99.90
39019;DHT22;24786;51.984;5.872;2022-09-09T11:19:48;18.00;99.90
39019;DHT22;24786;51.984;5.872;2022-09-09T11:25:21;17.80;99.90
39019;DHT22;24786;51.984;5.872;2022-09-09T11:30:35;17.90;99.90
39019;DHT22;24786;51.984;5.872;2022-09-09T11:35:57;18.10;99.90
39019;DHT22;24786;51.984;5.872;2022-09-09T11:38:44;18.20;99.90
39019;DHT22;24786;51.984;5.872;2022-09-09T11:41:10;18.20;99.90
39019;DHT22;24786;51.984;5.872;2022-09-09T11:43:44;18.20;99.90
39019;DHT22;24786;51.984;5.872;2022-09-09T11:46:13;18.10;99.90
39019;DHT22;24786;51.984;5.872;2022-09-09T11:48:42;18.10;99.90
39019;DHT22;24786;51.984;5.872;2022-09-09T11:51:30;18.20;99.90
39019;DHT22;24786;51.984;5.872;2022-09-09T11:54:02;18.30;99.90
39019;DHT22;24786;51.984;5.872;2022-09-09T11:56:53;18.30;99.90
39019;DHT22;24786;51.984;5.872;2022-09-09T11:59:26;18.30;99.90
39019;DHT22;24786;51.984;5.872;2022-09-09T12:02:12;18.10;99.90
39019;DHT22;24786;51.984;5.872;2022-09-09T12:05:07;18.10;99.90
39019;DHT22;24786;51.984;5.872;2022-09-09T12:07:57;18.20;99.90
39019;DHT22;24786;51.984;5.872;2022-09-09T12:10:30;18.40;99.90
39019;DHT22;24786;51.984;5.872;2022-09-09T12:13:19;18.70;99.90
39019;DHT22;24786;51.984;5.872;2022-09-09T12:16:02;18.80;99.90
39019;DHT22;24786;51.984;5.872;2022-09-09T12:18:36;18.70;99.90
39019;DHT22;24786;51.984;5.872;2022-09-09T12:21:19;18.70;99.90
39019;DHT22;24786;51.984;5.872;2022-09-09T12:23:52;18.60;99.90
39019;DHT22;24786;51.984;5.872;2022-09-09T12:35:18;18.30;99.90
39019;DHT22;24786;51.984;5.872;2022-09-09T12:37:34;18.30;99.90
39019;DHT22;24786;51.984;5.872;2022-09-09T12:42:45;18.50;99.90
39019;DHT22;24786;51.984;5.872;2022-09-09T12:45:28;18.60;99.90
39019;DHT22;24786;51.984;5.872;2022-09-09T12:48:06;18.80;99.90
39019;DHT22;24786;51.984;5.872;2022-09-09T12:50:35;18.90;99.90
39019;DHT22;24786;51.984;5.872;2022-09-09T12:53:39;18.90;99.90
39019;DHT22;24786;51.984;5.872;2022-09-09T12:56:07;18.90;99.90
39019;DHT22;24786;51.984;5.872;2022-09-09T12:58:35;18.80;99.90
39019;DHT22;24786;51.984;5.872;2022-09-09T13:01:03;18.80;99.90
39019;DHT22;24786;51.984;5.872;2022-09-09T13:03:41;18.60;99.90
39019;DHT22;24786;51.984;5.872;2022-09-09T13:06:13;18.60;99.90
39019;DHT22;24786;51.984;5.872;2022-09-09T13:08:39;18.50;99.90
39019;DHT22;24786;51.984;5.872;2022-09-09T13:11:19;18.40;99.90
39019;DHT22;24786;51.984;5.872;2022-09-09T13:13:54;18.30;99.90
39019;DHT22;24786;51.984;5.872;2022-09-09T13:16:25;18.30;99.90
39019;DHT22;24786;51.984;5.872;2022-09-09T13:18:52;18.20;99.90
39019;DHT22;24786;51.984;5.872;2022-09-09T13:21:18;18.30;99.90
39019;DHT22;24786;51.984;5.872;2022-09-09T13:23:49;18.40;99.90
39019;DHT22;24786;51.984;5.872;2022-09-09T13:26:26;18.50;99.90
39019;DHT22;24786;51.984;5.872;2022-09-09T13:28:53;18.60;99.90
39019;DHT22;24786;51.984;5.872;2022-09-09T13:31:30;18.60;99.90
39019;DHT22;24786;51.984;5.872;2022-09-09T13:33:57;18.60;99.90
39019;DHT22;24786;51.984;5.872;2022-09-09T13:36:30;18.60;99.90
39019;DHT22;24786;51.984;5.872;2022-09-09T13:38:58;18.60;99.90
39019;DHT22;24786;51.984;5.872;2022-09-09T13:41:36;18.70;99.90
39019;DHT22;24786;51.984;5.872;2022-09-09T13:44:03;18.70;99.90
39019;DHT22;24786;51.984;5.872;2022-09-09T13:46:36;18.80;99.90
39019;DHT22;24786;51.984;5.872;2022-09-09T13:51:39;18.70;99.90
39019;DHT22;24786;51.984;5.872;2022-09-09T13:54:09;18.70;99.90
39019;DHT22;24786;51.984;5.872;2022-09-09T13:56:37;18.60;99.90
39019;DHT22;24786;51.984;5.872;2022-09-09T13:59:05;18.60;99.90
39019;DHT22;24786;51.984;5.872;2022-09-09T14:01:31;18.70;99.90
39019;DHT22;24786;51.984;5.872;2022-09-09T14:03:58;18.60;99.90
39019;DHT22;24786;51.984;5.872;2022-09-09T14:06:24;18.50;99.90
39019;DHT22;24786;51.984;5.872;2022-09-09T14:08:50;18.50;99.90
39019;DHT22;24786;51.984;5.872;2022-09-09T14:11:16;18.50;99.90
39019;DHT22;24786;51.984;5.872;2022-09-09T14:13:42;18.60;99.90
39019;DHT22;24786;51.984;5.872;2022-09-09T14:16:07;18.60;99.90
39019;DHT22;24786;51.984;5.872;2022-09-09T14:18:33;18.70;99.90
39019;DHT22;24786;51.984;5.872;2022-09-09T14:20:59;18.80;99.90
39019;DHT22;24786;51.984;5.872;2022-09-09T14:23:25;18.80;99.90
39019;DHT22;24786;51.984;5.872;2022-09-09T14:25:51;18.80;99.90
39019;DHT22;24786;51.984;5.872;2022-09-09T14:28:17;18.70;99.90
39019;DHT22;24786;51.984;5.872;2022-09-09T14:30:43;18.60;99.90
39019;DHT22;24786;51.984;5.872;2022-09-09T14:33:14;18.60;99.90
39019;DHT22;24786;51.984;5.872;2022-09-09T14:35:40;18.40;99.90
39019;DHT22;24786;51.984;5.872;2022-09-09T14:38:07;18.50;99.90
39019;DHT22;24786;51.984;5.872;2022-09-09T14:40:34;18.50;99.90
39019;DHT22;24786;51.984;5.872;2022-09-09T14:43:00;18.50;99.90
39019;DHT22;24786;51.984;5.872;2022-09-09T14:45:26;18.60;99.90
39019;DHT22;24786;51.984;5.872;2022-09-09T14:47:52;18.60;99.90
39019;DHT22;24786;51.984;5.872;2022-09-09T14:50:22;18.60;99.90
39019;DHT22;24786;51.984;5.872;2022-09-09T14:52:48;18.70;99.90
39019;DHT22;24786;51.984;5.872;2022-09-09T14:55:14;18.80;99.90
39019;DHT22;24786;51.984;5.872;2022-09-09T14:57:40;18.80;99.90
39019;DHT22;24786;51.984;5.872;2022-09-09T15:00:07;18.90;99.90
39019;DHT22;24786;51.984;5.872;2022-09-09T15:02:34;19.00;99.90
39019;DHT22;24786;51.984;5.872;2022-09-09T15:04:59;19.00;99.90
39019;DHT22;24786;51.984;5.872;2022-09-09T15:07:25;19.00;99.90
39019;DHT22;24786;51.984;5.872;2022-09-09T15:09:52;19.00;99.90
39019;DHT22;24786;51.984;5.872;2022-09-09T15:12:18;18.90;99.90
39019;DHT22;24786;51.984;5.872;2022-09-09T15:14:45;18.90;99.90
39019;DHT22;24786;51.984;5.872;2022-09-09T15:17:11;18.90;99.90
39019;DHT22;24786;51.984;5.872;2022-09-09T15:19:37;18.90;99.90
39019;DHT22;24786;51.984;5.872;2022-09-09T15:22:03;18.90;99.90
39019;DHT22;24786;51.984;5.872;2022-09-09T15:24:33;18.70;99.90
39019;DHT22;24786;51.984;5.872;2022-09-09T15:27:00;18.70;99.90
39019;DHT22;24786;51.984;5.872;2022-09-09T15:29:26;18.70;99.90
39019;DHT22;24786;51.984;5.872;2022-09-09T15:31:53;18.50;99.90
39019;DHT22;24786;51.984;5.872;2022-09-09T15:34:19;18.50;99.90
39019;DHT22;24786;51.984;5.872;2022-09-09T15:36:45;18.50;99.90
39019;DHT22;24786;51.984;5.872;2022-09-09T15:39:15;18.40;99.90
39019;DHT22;24786;51.984;5.872;2022-09-09T15:41:46;18.30;99.90
39019;DHT22;24786;51.984;5.872;2022-09-09T15:44:12;18.20;99.90
39019;DHT22;24786;51.984;5.872;2022-09-09T15:46:53;18.20;99.90
39019;DHT22;24786;51.984;5.872;2022-09-09T15:49:23;18.20;99.90
39019;DHT22;24786;51.984;5.872;2022-09-09T15:51:56;18.10;99.90
39019;DHT22;24786;51.984;5.872;2022-09-09T15:54:32;18.10;99.90
39019;DHT22;24786;51.984;5.872;2022-09-09T15:56:58;18.10;99.90
39019;DHT22;24786;51.984;5.872;2022-09-09T15:59:26;18.00;99.90
39019;DHT22;24786;51.984;5.872;2022-09-09T16:01:53;17.80;99.90
39019;DHT22;24786;51.984;5.872;2022-09-09T16:04:21;17.70;99.90
39019;DHT22;24786;51.984;5.872;2022-09-09T16:07:00;17.60;99.90
39019;DHT22;24786;51.984;5.872;2022-09-09T16:09:27;17.20;99.90
39019;DHT22;24786;51.984;5.872;2022-09-09T16:11:56;16.80;99.90
39019;DHT22;24786;51.984;5.872;2022-09-09T16:14:23;16.50;99.90
39019;DHT22;24786;51.984;5.872;2022-09-09T16:16:50;16.30;99.90
39019;DHT22;24786;51.984;5.872;2022-09-09T16:19:15;16.20;99.90
39019;DHT22;24786;51.984;5.872;2022-09-09T16:21:46;16.20;99.90
39019;DHT22;24786;51.984;5.872;2022-09-09T16:24:14;16.30;99.90
39019;DHT22;24786;51.984;5.872;2022-09-09T16:26:41;16.20;99.90
39019;DHT22;24786;51.984;5.872;2022-09-09T16:29:09;16.30;99.90
39019;DHT22;24786;51.984;5.872;2022-09-09T16:31:35;16.40;99.90
39019;DHT22;24786;51.984;5.872;2022-09-09T16:34:01;16.50;99.90
39019;DHT22;24786;51.984;5.872;2022-09-09T16:36:30;16.60;99.90
39019;DHT22;24786;51.984;5.872;2022-09-09T16:38:58;16.70;99.90
39019;DHT22;24786;51.984;5.872;2022-09-09T16:41:25;16.80;99.90
39019;DHT22;24786;51.984;5.872;2022-09-09T16:43:55;16.80;99.90
39019;DHT22;24786;51.984;5.872;2022-09-09T16:46:22;16.90;99.90
39019;DHT22;24786;51.984;5.872;2022-09-09T16:48:49;16.90;99.90
39019;DHT22;24786;51.984;5.872;2022-09-09T16:51:18;16.90;99.90
39019;DHT22;24786;51.984;5.872;2022-09-09T16:53:44;16.90;99.90
39019;DHT22;24786;51.984;5.872;2022-09-09T16:56:12;16.90;99.90
39019;DHT22;24786;51.984;5.872;2022-09-09T16:58:39;16.80;99.90
39019;DHT22;24786;51.984;5.872;2022-09-09T17:01:05;16.80;99.90
39019;DHT22;24786;51.984;5.872;2022-09-09T17:03:31;16.70;99.90
39019;DHT22;24786;51.984;5.872;2022-09-09T17:05:58;16.70;99.90
39019;DHT22;24786;51.984;5.872;2022-09-09T17:08:28;16.70;99.90
39019;DHT22;24786;51.984;5.872;2022-09-09T17:10:54;16.70;99.90
39019;DHT22;24786;51.984;5.872;2022-09-09T17:13:20;16.60;99.90
39019;DHT22;24786;51.984;5.872;2022-09-09T17:15:46;16.70;99.90
39019;DHT22;24786;51.984;5.872;2022-09-09T17:18:12;16.60;99.90
39019;DHT22;24786;51.984;5.872;2022-09-09T17:20:38;16.60;99.90